sensor_id;sensor_type;location;lat;lon;timestamp;temperature;humidity
5930;DHT22;2990;48.746;9.236;2022-12-07T00:01:23;2.80;99.90
5930;DHT22;2990;48.746;9.236;2022-12-07T00:03:51;2.80;99.90
5930;DHT22;2990;48.746;9.236;2022-12-07T00:06:18;2.80;99.90
5930;DHT22;2990;48.746;9.236;2022-12-07T00:08:44;2.80;99.90
5930;DHT22;2990;48.746;9.236;2022-12-07T00:11:12;2.80;99.90
5930;DHT22;2990;48.746;9.236;2022-12-07T00:13:39;2.70;99.90
5930;DHT22;2990;48.746;9.236;2022-12-07T00:16:13;2.80;99.90
5930;DHT22;2990;48.746;9.236;2022-12-07T00:18:40;2.80;99.90
5930;DHT22;2990;48.746;9.236;2022-12-07T00:21:12;2.80;99.90
5930;DHT22;2990;48.746;9.236;2022-12-07T00:23:40;2.80;99.90
5930;DHT22;2990;48.746;9.236;2022-12-07T00:26:20;2.70;99.90
5930;DHT22;2990;48.746;9.236;2022-12-07T00:28:48;2.80;99.90
5930;DHT22;2990;48.746;9.236;2022-12-07T00:31:14;2.80;99.90
5930;DHT22;2990;48.746;9.236;2022-12-07T00:33:41;2.80;99.90
5930;DHT22;2990;48.746;9.236;2022-12-07T00:36:09;2.80;99.90
5930;DHT22;2990;48.746;9.236;2022-12-07T00:38:36;2.80;99.90
5930;DHT22;2990;48.746;9.236;2022-12-07T00:41:04;2.80;99.90
5930;DHT22;2990;48.746;9.236;2022-12-07T00:43:31;2.80;99.90
5930;DHT22;2990;48.746;9.236;2022-12-07T00:45:57;2.80;99.90
5930;DHT22;2990;48.746;9.236;2022-12-07T00:48:23;2.80;99.90
5930;DHT22;2990;48.746;9.236;2022-12-07T00:50:49;2.80;99.90
5930;DHT22;2990;48.746;9.236;2022-12-07T00:53:15;2.90;99.90
5930;DHT22;2990;48.746;9.236;2022-12-07T00:55:42;2.80;99.90
5930;DHT22;2990;48.746;9.236;2022-12-07T00:58:09;2.70;99.90
5930;DHT22;2990;48.746;9.236;2022-12-07T01:00:39;2.70;99.90
5930;DHT22;2990;48.746;9.236;2022-12-07T01:03:07;2.70;99.90
5930;DHT22;2990;48.746;9.236;2022-12-07T01:05:33;2.70;99.90
5930;DHT22;2990;48.746;9.236;2022-12-07T01:07:59;2.80;99.90
5930;DHT22;2990;48.746;9.236;2022-12-07T01:10:24;2.70;99.80
5930;DHT22;2990;48.746;9.236;2022-12-07T01:12:50;2.70;88.40
5930;DHT22;2990;48.746;9.236;2022-12-07T01:15:16;2.80;44.60
5930;DHT22;2990;48.746;9.236;2022-12-07T01:17:42;2.70;49.10
5930;DHT22;2990;48.746;9.236;2022-12-07T01:20:08;2.70;52.40
5930;DHT22;2990;48.746;9.236;2022-12-07T01:22:41;2.60;50.40
5930;DHT22;2990;48.746;9.236;2022-12-07T01:25:09;2.60;53.60
5930;DHT22;2990;48.746;9.236;2022-12-07T01:27:37;2.60;63.50
5930;DHT22;2990;48.746;9.236;2022-12-07T01:30:07;2.60;71.40
5930;DHT22;2990;48.746;9.236;2022-12-07T01:32:33;2.70;39.90
5930;DHT22;2990;48.746;9.236;2022-12-07T01:34:59;2.70;19.10
5930;DHT22;2990;48.746;9.236;2022-12-07T01:37:25;2.70;6.30
5930;DHT22;2990;48.746;9.236;2022-12-07T01:39:51;2.70;1.00
5930;DHT22;2990;48.746;9.236;2022-12-07T01:42:17;2.70;1.00
5930;DHT22;2990;48.746;9.236;2022-12-07T01:47:55;2.50;1.00
5930;DHT22;2990;48.746;9.236;2022-12-07T01:50:21;2.50;1.00
5930;DHT22;2990;48.746;9.236;2022-12-07T01:52:49;2.40;1.00
5930;DHT22;2990;48.746;9.236;2022-12-07T01:55:16;2.40;1.00
5930;DHT22;2990;48.746;9.236;2022-12-07T01:57:48;2.40;1.00
5930;DHT22;2990;48.746;9.236;2022-12-07T02:00:15;2.40;2.00
5930;DHT22;2990;48.746;9.236;2022-12-07T02:02:53;2.40;10.60
5930;DHT22;2990;48.746;9.236;2022-12-07T02:05:20;2.40;18.90
5930;DHT22;2990;48.746;9.236;2022-12-07T02:07:47;2.40;26.80
5930;DHT22;2990;48.746;9.236;2022-12-07T02:10:17;2.40;31.70
5930;DHT22;2990;48.746;9.236;2022-12-07T02:12:45;2.30;37.90
5930;DHT22;2990;48.746;9.236;2022-12-07T02:15:12;2.30;47.00
5930;DHT22;2990;48.746;9.236;2022-12-07T02:18:05;2.30;58.30
5930;DHT22;2990;48.746;9.236;2022-12-07T02:23:33;2.40;71.30
5930;DHT22;2990;48.746;9.236;2022-12-07T02:31:31;2.30;59.90
5930;DHT22;2990;48.746;9.236;2022-12-07T02:34:09;2.30;53.00
5930;DHT22;2990;48.746;9.236;2022-12-07T02:36:43;2.30;54.70
5930;DHT22;2990;48.746;9.236;2022-12-07T02:39:40;2.30;60.10
5930;DHT22;2990;48.746;9.236;2022-12-07T02:42:17;2.30;71.30
5930;DHT22;2990;48.746;9.236;2022-12-07T02:44:46;2.30;86.20
5930;DHT22;2990;48.746;9.236;2022-12-07T02:47:15;2.30;90.50
5930;DHT22;2990;48.746;9.236;2022-12-07T02:49:42;2.30;94.70
5930;DHT22;2990;48.746;9.236;2022-12-07T02:52:07;2.40;74.30
5930;DHT22;2990;48.746;9.236;2022-12-07T02:54:33;2.30;68.70
5930;DHT22;2990;48.746;9.236;2022-12-07T02:57:29;2.30;57.00
5930;DHT22;2990;48.746;9.236;2022-12-07T03:00:04;2.30;62.40
5930;DHT22;2990;48.746;9.236;2022-12-07T03:03:03;2.20;63.40
5930;DHT22;2990;48.746;9.236;2022-12-07T03:08:15;2.30;82.20
5930;DHT22;2990;48.746;9.236;2022-12-07T03:13:59;2.30;74.20
5930;DHT22;2990;48.746;9.236;2022-12-07T03:16:33;2.20;64.30
5930;DHT22;2990;48.746;9.236;2022-12-07T03:19:16;2.20;68.60
5930;DHT22;2990;48.746;9.236;2022-12-07T03:21:47;2.20;67.70
5930;DHT22;2990;48.746;9.236;2022-12-07T03:24:18;2.20;65.40
5930;DHT22;2990;48.746;9.236;2022-12-07T03:26:49;2.20;68.40
5930;DHT22;2990;48.746;9.236;2022-12-07T03:29:24;2.20;59.80
5930;DHT22;2990;48.746;9.236;2022-12-07T03:32:12;2.20;57.40
5930;DHT22;2990;48.746;9.236;2022-12-07T03:37:31;2.20;49.00
5930;DHT22;2990;48.746;9.236;2022-12-07T03:40:05;2.30;40.00
5930;DHT22;2990;48.746;9.236;2022-12-07T03:42:33;2.30;34.60
5930;DHT22;2990;48.746;9.236;2022-12-07T03:45:01;2.20;35.10
5930;DHT22;2990;48.746;9.236;2022-12-07T03:47:48;2.20;34.10
5930;DHT22;2990;48.746;9.236;2022-12-07T03:53:05;2.20;15.50
5930;DHT22;2990;48.746;9.236;2022-12-07T03:55:34;2.10;12.60
5930;DHT22;2990;48.746;9.236;2022-12-07T03:58:04;2.20;19.20
5930;DHT22;2990;48.746;9.236;2022-12-07T04:00:32;2.20;7.20
5930;DHT22;2990;48.746;9.236;2022-12-07T04:02:58;2.20;1.00
5930;DHT22;2990;48.746;9.236;2022-12-07T04:05:26;2.20;1.00
5930;DHT22;2990;48.746;9.236;2022-12-07T04:07:51;2.20;1.00
5930;DHT22;2990;48.746;9.236;2022-12-07T04:10:17;2.20;1.00
5930;DHT22;2990;48.746;9.236;2022-12-07T04:12:43;2.20;1.00
5930;DHT22;2990;48.746;9.236;2022-12-07T04:15:09;2.20;1.00
5930;DHT22;2990;48.746;9.236;2022-12-07T04:17:34;2.10;1.00
5930;DHT22;2990;48.746;9.236;2022-12-07T04:20:00;2.10;1.00
5930;DHT22;2990;48.746;9.236;2022-12-07T04:22:26;2.10;1.00
5930;DHT22;2990;48.746;9.236;2022-12-07T04:24:51;2.10;1.00
5930;DHT22;2990;48.746;9.236;2022-12-07T04:27:17;2.10;1.00
5930;DHT22;2990;48.746;9.236;2022-12-07T04:29:45;2.10;1.00
5930;DHT22;2990;48.746;9.236;2022-12-07T04:32:11;2.00;1.00
5930;DHT22;2990;48.746;9.236;2022-12-07T04:34:37;2.00;1.00
5930;DHT22;2990;48.746;9.236;2022-12-07T04:37:02;2.00;1.00
5930;DHT22;2990;48.746;9.236;2022-12-07T04:39:29;2.00;1.00
5930;DHT22;2990;48.746;9.236;2022-12-07T04:41:55;1.90;1.00
5930;DHT22;2990;48.746;9.236;2022-12-07T04:44:22;1.80;1.00
5930;DHT22;2990;48.746;9.236;2022-12-07T04:46:49;1.80;1.00
5930;DHT22;2990;48.746;9.236;2022-12-07T04:49:15;1.80;1.00
5930;DHT22;2990;48.746;9.236;2022-12-07T04:51:42;1.80;1.00
5930;DHT22;2990;48.746;9.236;2022-12-07T04:54:08;1.80;1.00
5930;DHT22;2990;48.746;9.236;2022-12-07T04:56:34;1.80;1.00
5930;DHT22;2990;48.746;9.236;2022-12-07T04:59:01;1.80;1.00
5930;DHT22;2990;48.746;9.236;2022-12-07T05:01:29;1.90;1.00
5930;DHT22;2990;48.746;9.236;2022-12-07T05:03:54;1.80;1.00
5930;DHT22;2990;48.746;9.236;2022-12-07T05:06:20;1.80;99.90
5930;DHT22;2990;48.746;9.236;2022-12-07T05:08:46;1.90;99.90
5930;DHT22;2990;48.746;9.236;2022-12-07T05:11:18;1.90;1.00
5930;DHT22;2990;48.746;9.236;2022-12-07T05:14:04;1.90;1.00
5930;DHT22;2990;48.746;9.236;2022-12-07T05:16:30;1.90;99.90
5930;DHT22;2990;48.746;9.236;2022-12-07T05:18:56;2.00;1.00
5930;DHT22;2990;48.746;9.236;2022-12-07T05:21:22;1.90;99.90
5930;DHT22;2990;48.746;9.236;2022-12-07T05:23:48;2.00;99.90
5930;DHT22;2990;48.746;9.236;2022-12-07T05:26:15;1.90;99.90
5930;DHT22;2990;48.746;9.236;2022-12-07T05:28:41;1.90;1.00
5930;DHT22;2990;48.746;9.236;2022-12-07T05:31:07;1.90;1.00
5930;DHT22;2990;48.746;9.236;2022-12-07T05:33:32;1.90;1.00
5930;DHT22;2990;48.746;9.236;2022-12-07T05:35:58;1.80;1.00
5930;DHT22;2990;48.746;9.236;2022-12-07T05:38:25;1.80;1.00
5930;DHT22;2990;48.746;9.236;2022-12-07T05:40:51;1.80;1.00
5930;DHT22;2990;48.746;9.236;2022-12-07T05:43:16;1.80;1.00
5930;DHT22;2990;48.746;9.236;2022-12-07T05:45:42;1.70;99.90
5930;DHT22;2990;48.746;9.236;2022-12-07T05:48:07;1.60;75.70
5930;DHT22;2990;48.746;9.236;2022-12-07T05:50:34;1.60;1.00
5930;DHT22;2990;48.746;9.236;2022-12-07T05:53:00;1.60;99.90
5930;DHT22;2990;48.746;9.236;2022-12-07T05:55:26;1.60;99.90
5930;DHT22;2990;48.746;9.236;2022-12-07T05:57:51;1.60;1.00
5930;DHT22;2990;48.746;9.236;2022-12-07T06:00:36;1.50;99.90
5930;DHT22;2990;48.746;9.236;2022-12-07T06:03:02;1.60;99.90
5930;DHT22;2990;48.746;9.236;2022-12-07T06:05:28;1.70;99.90
5930;DHT22;2990;48.746;9.236;2022-12-07T06:07:54;1.70;1.00
5930;DHT22;2990;48.746;9.236;2022-12-07T06:10:20;1.60;1.00
5930;DHT22;2990;48.746;9.236;2022-12-07T06:12:46;1.60;1.00
5930;DHT22;2990;48.746;9.236;2022-12-07T06:15:15;1.60;1.00
5930;DHT22;2990;48.746;9.236;2022-12-07T06:17:41;1.50;1.00
5930;DHT22;2990;48.746;9.236;2022-12-07T06:20:06;1.50;1.00
5930;DHT22;2990;48.746;9.236;2022-12-07T06:22:32;1.50;1.00
5930;DHT22;2990;48.746;9.236;2022-12-07T06:24:58;1.50;1.00
5930;DHT22;2990;48.746;9.236;2022-12-07T06:27:26;1.50;1.00
5930;DHT22;2990;48.746;9.236;2022-12-07T06:29:52;1.60;1.00
5930;DHT22;2990;48.746;9.236;2022-12-07T06:32:18;1.60;1.00
5930;DHT22;2990;48.746;9.236;2022-12-07T06:34:43;1.60;1.00
5930;DHT22;2990;48.746;9.236;2022-12-07T06:37:09;1.60;1.00
5930;DHT22;2990;48.746;9.236;2022-12-07T06:39:34;1.50;1.00
5930;DHT22;2990;48.746;9.236;2022-12-07T06:42:02;1.50;1.00
5930;DHT22;2990;48.746;9.236;2022-12-07T06:44:27;1.50;1.00
5930;DHT22;2990;48.746;9.236;2022-12-07T06:46:54;1.50;1.00
5930;DHT22;2990;48.746;9.236;2022-12-07T06:49:20;1.60;1.00
5930;DHT22;2990;48.746;9.236;2022-12-07T06:51:46;1.50;1.00
5930;DHT22;2990;48.746;9.236;2022-12-07T06:54:14;1.50;1.00
5930;DHT22;2990;48.746;9.236;2022-12-07T06:56:40;1.60;1.00
5930;DHT22;2990;48.746;9.236;2022-12-07T06:59:07;1.60;1.00
5930;DHT22;2990;48.746;9.236;2022-12-07T07:01:34;1.60;1.00
5930;DHT22;2990;48.746;9.236;2022-12-07T07:04:00;1.60;1.00
5930;DHT22;2990;48.746;9.236;2022-12-07T07:06:25;1.60;1.00
5930;DHT22;2990;48.746;9.236;2022-12-07T07:08:51;1.50;1.00
5930;DHT22;2990;48.746;9.236;2022-12-07T07:11:17;1.60;1.00
5930;DHT22;2990;48.746;9.236;2022-12-07T07:13:43;1.60;1.00
5930;DHT22;2990;48.746;9.236;2022-12-07T07:16:09;1.60;1.00
5930;DHT22;2990;48.746;9.236;2022-12-07T07:18:36;1.60;1.00
5930;DHT22;2990;48.746;9.236;2022-12-07T07:21:01;1.60;1.00
5930;DHT22;2990;48.746;9.236;2022-12-07T07:23:27;1.60;1.00
5930;DHT22;2990;48.746;9.236;2022-12-07T07:25:53;1.60;1.00
5930;DHT22;2990;48.746;9.236;2022-12-07T07:28:18;1.60;1.00
5930;DHT22;2990;48.746;9.236;2022-12-07T07:30:44;1.70;1.00
5930;DHT22;2990;48.746;9.236;2022-12-07T07:33:10;1.70;99.90
5930;DHT22;2990;48.746;9.236;2022-12-07T07:35:38;1.70;99.90
5930;DHT22;2990;48.746;9.236;2022-12-07T07:38:04;1.80;99.90
5930;DHT22;2990;48.746;9.236;2022-12-07T07:40:30;1.80;99.90
5930;DHT22;2990;48.746;9.236;2022-12-07T07:42:57;1.80;99.90
5930;DHT22;2990;48.746;9.236;2022-12-07T07:45:26;1.80;99.90
5930;DHT22;2990;48.746;9.236;2022-12-07T07:47:52;1.80;99.90
5930;DHT22;2990;48.746;9.236;2022-12-07T07:50:18;1.80;99.90
5930;DHT22;2990;48.746;9.236;2022-12-07T07:52:44;1.80;99.90
5930;DHT22;2990;48.746;9.236;2022-12-07T07:55:11;1.80;99.90
5930;DHT22;2990;48.746;9.236;2022-12-07T07:57:38;1.90;99.90
5930;DHT22;2990;48.746;9.236;2022-12-07T08:00:07;1.90;99.90
5930;DHT22;2990;48.746;9.236;2022-12-07T08:02:33;1.90;99.90
5930;DHT22;2990;48.746;9.236;2022-12-07T08:04:59;1.90;99.90
5930;DHT22;2990;48.746;9.236;2022-12-07T08:07:24;1.80;1.00
5930;DHT22;2990;48.746;9.236;2022-12-07T08:09:50;1.90;1.00
5930;DHT22;2990;48.746;9.236;2022-12-07T08:12:17;1.90;1.00
5930;DHT22;2990;48.746;9.236;2022-12-07T08:14:43;1.90;1.00
5930;DHT22;2990;48.746;9.236;2022-12-07T08:17:08;1.90;1.00
5930;DHT22;2990;48.746;9.236;2022-12-07T08:19:34;2.00;1.00
5930;DHT22;2990;48.746;9.236;2022-12-07T08:22:00;2.00;1.00
5930;DHT22;2990;48.746;9.236;2022-12-07T08:24:26;2.10;1.00
5930;DHT22;2990;48.746;9.236;2022-12-07T08:26:51;2.10;1.00
5930;DHT22;2990;48.746;9.236;2022-12-07T08:29:17;2.10;1.00
5930;DHT22;2990;48.746;9.236;2022-12-07T08:31:43;2.20;1.00
5930;DHT22;2990;48.746;9.236;2022-12-07T08:34:11;2.20;1.00
5930;DHT22;2990;48.746;9.236;2022-12-07T08:36:37;2.20;1.00
5930;DHT22;2990;48.746;9.236;2022-12-07T08:39:03;2.30;99.90
5930;DHT22;2990;48.746;9.236;2022-12-07T08:41:29;2.30;99.90
5930;DHT22;2990;48.746;9.236;2022-12-07T08:43:54;2.30;1.00
5930;DHT22;2990;48.746;9.236;2022-12-07T08:46:25;2.40;99.90
5930;DHT22;2990;48.746;9.236;2022-12-07T08:51:21;2.40;1.00
5930;DHT22;2990;48.746;9.236;2022-12-07T08:53:49;2.50;1.00
5930;DHT22;2990;48.746;9.236;2022-12-07T08:56:15;2.60;1.00
5930;DHT22;2990;48.746;9.236;2022-12-07T08:58:41;2.60;1.00
5930;DHT22;2990;48.746;9.236;2022-12-07T09:01:09;2.60;99.90
5930;DHT22;2990;48.746;9.236;2022-12-07T09:03:34;2.70;1.00
5930;DHT22;2990;48.746;9.236;2022-12-07T09:06:00;2.80;1.00
5930;DHT22;2990;48.746;9.236;2022-12-07T09:08:31;2.80;99.90
5930;DHT22;2990;48.746;9.236;2022-12-07T09:10:57;2.80;1.00
5930;DHT22;2990;48.746;9.236;2022-12-07T09:13:23;2.90;1.00
5930;DHT22;2990;48.746;9.236;2022-12-07T09:15:49;3.10;96.70
5930;DHT22;2990;48.746;9.236;2022-12-07T09:18:14;3.10;99.90
5930;DHT22;2990;48.746;9.236;2022-12-07T09:20:40;3.10;51.10
5930;DHT22;2990;48.746;9.236;2022-12-07T09:23:06;3.20;1.00
5930;DHT22;2990;48.746;9.236;2022-12-07T09:25:35;3.30;1.00
5930;DHT22;2990;48.746;9.236;2022-12-07T09:28:00;3.20;99.90
5930;DHT22;2990;48.746;9.236;2022-12-07T09:30:27;3.30;68.30
5930;DHT22;2990;48.746;9.236;2022-12-07T09:32:55;3.30;1.00
5930;DHT22;2990;48.746;9.236;2022-12-07T09:35:20;3.40;99.90
5930;DHT22;2990;48.746;9.236;2022-12-07T09:37:46;3.40;1.00
5930;DHT22;2990;48.746;9.236;2022-12-07T09:40:13;3.50;99.90
5930;DHT22;2990;48.746;9.236;2022-12-07T09:42:42;3.40;1.00
5930;DHT22;2990;48.746;9.236;2022-12-07T09:45:21;3.40;1.00
5930;DHT22;2990;48.746;9.236;2022-12-07T09:47:47;3.50;99.90
5930;DHT22;2990;48.746;9.236;2022-12-07T09:50:15;3.50;99.90
5930;DHT22;2990;48.746;9.236;2022-12-07T09:52:43;3.60;1.00
5930;DHT22;2990;48.746;9.236;2022-12-07T09:55:16;3.70;99.90
5930;DHT22;2990;48.746;9.236;2022-12-07T09:57:43;3.80;1.00
5930;DHT22;2990;48.746;9.236;2022-12-07T10:00:15;3.80;99.90
5930;DHT22;2990;48.746;9.236;2022-12-07T10:02:56;3.90;99.90
5930;DHT22;2990;48.746;9.236;2022-12-07T10:05:29;4.00;1.00
5930;DHT22;2990;48.746;9.236;2022-12-07T10:07:56;4.00;1.00
5930;DHT22;2990;48.746;9.236;2022-12-07T10:10:25;4.10;1.00
5930;DHT22;2990;48.746;9.236;2022-12-07T10:13:06;4.10;1.00
5930;DHT22;2990;48.746;9.236;2022-12-07T10:15:48;4.20;1.00
5930;DHT22;2990;48.746;9.236;2022-12-07T10:18:25;4.20;1.00
5930;DHT22;2990;48.746;9.236;2022-12-07T10:21:00;4.20;1.00
5930;DHT22;2990;48.746;9.236;2022-12-07T10:23:26;4.30;28.40
5930;DHT22;2990;48.746;9.236;2022-12-07T10:25:53;4.30;1.00
5930;DHT22;2990;48.746;9.236;2022-12-07T10:28:20;4.40;99.90
5930;DHT22;2990;48.746;9.236;2022-12-07T10:31:14;4.30;99.90
5930;DHT22;2990;48.746;9.236;2022-12-07T10:33:59;4.40;99.90
5930;DHT22;2990;48.746;9.236;2022-12-07T10:36:30;4.40;99.90
5930;DHT22;2990;48.746;9.236;2022-12-07T10:39:01;4.40;99.90
5930;DHT22;2990;48.746;9.236;2022-12-07T10:41:27;4.30;1.00
5930;DHT22;2990;48.746;9.236;2022-12-07T10:43:55;4.30;99.90
5930;DHT22;2990;48.746;9.236;2022-12-07T10:55:19;4.40;1.00
5930;DHT22;2990;48.746;9.236;2022-12-07T11:03:39;4.30;99.90
5930;DHT22;2990;48.746;9.236;2022-12-07T11:11:38;4.20;99.90
5930;DHT22;2990;48.746;9.236;2022-12-07T11:16:55;4.10;99.90
5930;DHT22;2990;48.746;9.236;2022-12-07T11:22:15;4.10;1.00
5930;DHT22;2990;48.746;9.236;2022-12-07T11:30:23;4.10;99.90
5930;DHT22;2990;48.746;9.236;2022-12-07T11:36:00;4.10;57.70
5930;DHT22;2990;48.746;9.236;2022-12-07T11:38:47;4.10;99.90
5930;DHT22;2990;48.746;9.236;2022-12-07T11:41:38;4.10;99.90
5930;DHT22;2990;48.746;9.236;2022-12-07T11:44:07;4.20;99.90
5930;DHT22;2990;48.746;9.236;2022-12-07T11:46:47;4.20;1.00
5930;DHT22;2990;48.746;9.236;2022-12-07T11:51:45;4.20;99.90
5930;DHT22;2990;48.746;9.236;2022-12-07T11:54:34;4.20;1.00
5930;DHT22;2990;48.746;9.236;2022-12-07T11:57:07;4.20;1.00
5930;DHT22;2990;48.746;9.236;2022-12-07T11:59:42;4.20;1.00
5930;DHT22;2990;48.746;9.236;2022-12-07T12:02:20;4.20;1.00
5930;DHT22;2990;48.746;9.236;2022-12-07T12:07:41;4.20;1.00
5930;DHT22;2990;48.746;9.236;2022-12-07T12:21:17;4.00;99.90
5930;DHT22;2990;48.746;9.236;2022-12-07T12:23:56;4.00;1.00
5930;DHT22;2990;48.746;9.236;2022-12-07T12:26:28;4.00;1.00
5930;DHT22;2990;48.746;9.236;2022-12-07T12:29:05;4.10;1.00
5930;DHT22;2990;48.746;9.236;2022-12-07T12:31:35;4.10;1.00
5930;DHT22;2990;48.746;9.236;2022-12-07T12:34:10;4.10;58.00
5930;DHT22;2990;48.746;9.236;2022-12-07T12:36:49;4.00;1.00
5930;DHT22;2990;48.746;9.236;2022-12-07T12:39:17;4.00;99.90
5930;DHT22;2990;48.746;9.236;2022-12-07T12:51:54;4.00;99.90
5930;DHT22;2990;48.746;9.236;2022-12-07T12:54:22;3.90;1.00
5930;DHT22;2990;48.746;9.236;2022-12-07T13:05:02;4.00;1.00
5930;DHT22;2990;48.746;9.236;2022-12-07T13:15:40;3.80;1.00
5930;DHT22;2990;48.746;9.236;2022-12-07T13:20:57;3.80;99.90
5930;DHT22;2990;48.746;9.236;2022-12-07T13:28:43;3.90;99.90
5930;DHT22;2990;48.746;9.236;2022-12-07T13:31:14;3.80;89.30
5930;DHT22;2990;48.746;9.236;2022-12-07T13:33:44;3.80;33.90
5930;DHT22;2990;48.746;9.236;2022-12-07T13:36:18;3.80;34.40
5930;DHT22;2990;48.746;9.236;2022-12-07T13:38:59;3.70;99.90
5930;DHT22;2990;48.746;9.236;2022-12-07T13:41:28;3.70;1.00
5930;DHT22;2990;48.746;9.236;2022-12-07T13:44:13;3.70;99.90
5930;DHT22;2990;48.746;9.236;2022-12-07T13:47:13;3.80;1.00
5930;DHT22;2990;48.746;9.236;2022-12-07T13:49:52;3.80;99.90
5930;DHT22;2990;48.746;9.236;2022-12-07T13:52:25;3.80;99.90
5930;DHT22;2990;48.746;9.236;2022-12-07T13:57:34;3.90;89.90
5930;DHT22;2990;48.746;9.236;2022-12-07T14:00:18;3.90;45.70
5930;DHT22;2990;48.746;9.236;2022-12-07T14:03:20;3.90;99.90
5930;DHT22;2990;48.746;9.236;2022-12-07T14:06:04;3.80;1.00
5930;DHT22;2990;48.746;9.236;2022-12-07T14:08:31;4.00;99.90
5930;DHT22;2990;48.746;9.236;2022-12-07T14:10:58;3.90;1.00
5930;DHT22;2990;48.746;9.236;2022-12-07T14:13:45;3.90;1.00
5930;DHT22;2990;48.746;9.236;2022-12-07T14:18:50;3.90;1.00
5930;DHT22;2990;48.746;9.236;2022-12-07T14:21:19;3.90;99.90
5930;DHT22;2990;48.746;9.236;2022-12-07T14:23:45;3.90;1.00
5930;DHT22;2990;48.746;9.236;2022-12-07T14:26:27;3.90;99.90
5930;DHT22;2990;48.746;9.236;2022-12-07T14:28:52;3.90;99.90
5930;DHT22;2990;48.746;9.236;2022-12-07T14:31:21;3.80;99.90
5930;DHT22;2990;48.746;9.236;2022-12-07T14:33:49;3.80;99.90
5930;DHT22;2990;48.746;9.236;2022-12-07T14:36:15;3.70;1.00
5930;DHT22;2990;48.746;9.236;2022-12-07T14:38:41;3.90;1.00
5930;DHT22;2990;48.746;9.236;2022-12-07T14:41:14;3.80;99.90
5930;DHT22;2990;48.746;9.236;2022-12-07T14:43:59;3.70;1.00
5930;DHT22;2990;48.746;9.236;2022-12-07T14:46:25;3.70;1.00
5930;DHT22;2990;48.746;9.236;2022-12-07T14:48:50;3.60;1.00
5930;DHT22;2990;48.746;9.236;2022-12-07T14:51:16;3.70;99.90
5930;DHT22;2990;48.746;9.236;2022-12-07T14:53:46;3.70;99.90
5930;DHT22;2990;48.746;9.236;2022-12-07T14:56:12;3.60;1.00
5930;DHT22;2990;48.746;9.236;2022-12-07T14:58:39;3.60;99.90
5930;DHT22;2990;48.746;9.236;2022-12-07T15:01:05;3.60;16.60
5930;DHT22;2990;48.746;9.236;2022-12-07T15:03:31;3.60;1.00
5930;DHT22;2990;48.746;9.236;2022-12-07T15:05:57;3.50;99.90
5930;DHT22;2990;48.746;9.236;2022-12-07T15:08:23;3.50;1.00
5930;DHT22;2990;48.746;9.236;2022-12-07T15:10:50;3.50;13.60
5930;DHT22;2990;48.746;9.236;2022-12-07T15:13:16;3.50;99.90
5930;DHT22;2990;48.746;9.236;2022-12-07T15:16:00;3.40;99.90
5930;DHT22;2990;48.746;9.236;2022-12-07T15:18:26;3.50;1.00
5930;DHT22;2990;48.746;9.236;2022-12-07T15:20:51;3.40;1.00
5930;DHT22;2990;48.746;9.236;2022-12-07T15:23:18;3.50;99.90
5930;DHT22;2990;48.746;9.236;2022-12-07T15:25:45;3.50;99.90
5930;DHT22;2990;48.746;9.236;2022-12-07T15:28:12;3.40;99.90
5930;DHT22;2990;48.746;9.236;2022-12-07T15:30:38;3.40;1.00
5930;DHT22;2990;48.746;9.236;2022-12-07T15:33:04;3.40;1.00
5930;DHT22;2990;48.746;9.236;2022-12-07T15:35:29;3.40;99.90
5930;DHT22;2990;48.746;9.236;2022-12-07T15:37:56;3.40;1.00
5930;DHT22;2990;48.746;9.236;2022-12-07T15:40:22;3.40;6.70
5930;DHT22;2990;48.746;9.236;2022-12-07T15:42:47;3.40;99.90
5930;DHT22;2990;48.746;9.236;2022-12-07T15:45:13;3.40;1.00
5930;DHT22;2990;48.746;9.236;2022-12-07T15:47:43;3.30;1.00
5930;DHT22;2990;48.746;9.236;2022-12-07T15:50:15;3.30;1.00
5930;DHT22;2990;48.746;9.236;2022-12-07T15:52:41;3.40;1.00
5930;DHT22;2990;48.746;9.236;2022-12-07T15:55:08;3.30;99.90
5930;DHT22;2990;48.746;9.236;2022-12-07T15:57:35;3.30;1.00
5930;DHT22;2990;48.746;9.236;2022-12-07T16:00:03;3.20;99.90
5930;DHT22;2990;48.746;9.236;2022-12-07T16:02:31;3.10;99.90
5930;DHT22;2990;48.746;9.236;2022-12-07T16:04:57;3.10;99.90
5930;DHT22;2990;48.746;9.236;2022-12-07T16:07:23;3.10;99.90
5930;DHT22;2990;48.746;9.236;2022-12-07T16:09:49;3.10;99.90
5930;DHT22;2990;48.746;9.236;2022-12-07T16:12:18;3.10;1.00
5930;DHT22;2990;48.746;9.236;2022-12-07T16:14:44;3.10;1.00
5930;DHT22;2990;48.746;9.236;2022-12-07T16:17:10;3.00;99.90
5930;DHT22;2990;48.746;9.236;2022-12-07T16:19:37;3.00;99.90
5930;DHT22;2990;48.746;9.236;2022-12-07T16:22:04;2.90;1.00
5930;DHT22;2990;48.746;9.236;2022-12-07T16:24:30;2.90;75.90
5930;DHT22;2990;48.746;9.236;2022-12-07T16:26:56;2.90;99.90
5930;DHT22;2990;48.746;9.236;2022-12-07T16:29:22;2.80;99.90
5930;DHT22;2990;48.746;9.236;2022-12-07T16:31:49;2.80;1.00
5930;DHT22;2990;48.746;9.236;2022-12-07T16:34:16;2.80;1.00
5930;DHT22;2990;48.746;9.236;2022-12-07T16:36:43;2.70;1.00
5930;DHT22;2990;48.746;9.236;2022-12-07T16:39:09;2.70;1.00
5930;DHT22;2990;48.746;9.236;2022-12-07T16:41:35;2.80;1.00
5930;DHT22;2990;48.746;9.236;2022-12-07T16:44:05;2.70;1.00
5930;DHT22;2990;48.746;9.236;2022-12-07T16:46:32;2.70;1.00
5930;DHT22;2990;48.746;9.236;2022-12-07T16:48:58;2.70;1.00
5930;DHT22;2990;48.746;9.236;2022-12-07T16:51:25;2.70;1.00
5930;DHT22;2990;48.746;9.236;2022-12-07T16:53:52;2.60;1.00
5930;DHT22;2990;48.746;9.236;2022-12-07T16:56:18;2.60;1.00
5930;DHT22;2990;48.746;9.236;2022-12-07T16:58:44;2.60;99.90
5930;DHT22;2990;48.746;9.236;2022-12-07T17:01:17;2.50;99.90
5930;DHT22;2990;48.746;9.236;2022-12-07T17:03:48;2.50;99.90
5930;DHT22;2990;48.746;9.236;2022-12-07T17:06:25;2.50;1.00
5930;DHT22;2990;48.746;9.236;2022-12-07T17:08:52;2.40;1.00
5930;DHT22;2990;48.746;9.236;2022-12-07T17:11:21;2.40;1.00
5930;DHT22;2990;48.746;9.236;2022-12-07T17:13:46;2.30;1.00
5930;DHT22;2990;48.746;9.236;2022-12-07T17:16:31;2.30;1.00
5930;DHT22;2990;48.746;9.236;2022-12-07T17:18:56;2.30;1.00
5930;DHT22;2990;48.746;9.236;2022-12-07T17:21:23;2.20;1.00
5930;DHT22;2990;48.746;9.236;2022-12-07T17:23:49;2.20;32.70
5930;DHT22;2990;48.746;9.236;2022-12-07T17:26:18;2.10;95.80
5930;DHT22;2990;48.746;9.236;2022-12-07T17:28:44;2.10;99.90
5930;DHT22;2990;48.746;9.236;2022-12-07T17:31:16;2.10;99.90
5930;DHT22;2990;48.746;9.236;2022-12-07T17:33:42;2.10;99.90
5930;DHT22;2990;48.746;9.236;2022-12-07T17:36:17;2.10;99.90
5930;DHT22;2990;48.746;9.236;2022-12-07T17:38:51;2.20;1.00
5930;DHT22;2990;48.746;9.236;2022-12-07T17:41:22;2.10;99.90
5930;DHT22;2990;48.746;9.236;2022-12-07T17:44:12;2.30;99.90
5930;DHT22;2990;48.746;9.236;2022-12-07T17:46:38;2.30;99.90
5930;DHT22;2990;48.746;9.236;2022-12-07T17:49:05;2.20;99.90
5930;DHT22;2990;48.746;9.236;2022-12-07T17:51:31;2.20;99.90
5930;DHT22;2990;48.746;9.236;2022-12-07T17:54:16;2.20;99.90
5930;DHT22;2990;48.746;9.236;2022-12-07T17:56:42;2.20;99.90
5930;DHT22;2990;48.746;9.236;2022-12-07T17:59:07;2.20;99.90
5930;DHT22;2990;48.746;9.236;2022-12-07T18:01:33;2.20;99.90
5930;DHT22;2990;48.746;9.236;2022-12-07T18:04:01;2.20;99.90
5930;DHT22;2990;48.746;9.236;2022-12-07T18:06:26;2.20;99.90
5930;DHT22;2990;48.746;9.236;2022-12-07T18:08:52;2.30;99.90
5930;DHT22;2990;48.746;9.236;2022-12-07T18:11:17;2.30;99.90
5930;DHT22;2990;48.746;9.236;2022-12-07T18:13:43;2.30;99.90
5930;DHT22;2990;48.746;9.236;2022-12-07T18:16:16;2.30;99.90
5930;DHT22;2990;48.746;9.236;2022-12-07T18:18:48;2.20;99.90
5930;DHT22;2990;48.746;9.236;2022-12-07T18:21:17;2.30;99.90
5930;DHT22;2990;48.746;9.236;2022-12-07T18:23:45;2.20;99.90
5930;DHT22;2990;48.746;9.236;2022-12-07T18:26:12;2.30;86.90
5930;DHT22;2990;48.746;9.236;2022-12-07T18:28:41;2.20;81.10
5930;DHT22;2990;48.746;9.236;2022-12-07T18:31:07;2.30;99.90
5930;DHT22;2990;48.746;9.236;2022-12-07T18:33:33;2.30;99.90